createdAt,value
2022-08-29T00:01:05.618Z,9.52
2022-08-29T00:03:33.771Z,6.13
2022-08-29T00:06:01.618Z,11.57
2022-08-29T00:08:29.588Z,7.60
2022-08-29T00:10:57.272Z,5.88
2022-08-29T00:13:25.170Z,14.38
2022-08-29T00:15:59.399Z,9.45
2022-08-29T00:18:27.630Z,6.70
2022-08-29T00:20:55.423Z,9.70
2022-08-29T00:23:23.131Z,5.82
2022-08-29T00:25:51.244Z,10.02
2022-08-29T00:28:19.246Z,8.20
2022-08-29T00:30:47.257Z,6.28
2022-08-29T00:33:15.397Z,10.32
2022-08-29T00:35:44.661Z,11.57
2022-08-29T00:38:14.293Z,8.95
2022-08-29T00:40:51.563Z,13.18
2022-08-29T00:43:21.224Z,10.35
2022-08-29T00:46:04.773Z,8.15
2022-08-29T00:48:32.712Z,10.40
2022-08-29T00:51:02.820Z,7.57
2022-08-29T00:53:32.734Z,11.05
2022-08-29T00:56:00.754Z,6.93
2022-08-29T00:58:37.192Z,8.63
2022-08-29T01:01:06.606Z,12.90
2022-08-29T01:03:35.448Z,10.07
2022-08-29T01:06:04.000Z,10.30
2022-08-29T01:08:32.569Z,9.48
2022-08-29T01:11:19.260Z,7.70
2022-08-29T01:13:49.630Z,8.13
2022-08-29T01:16:20.414Z,12.30
2022-08-29T01:18:49.761Z,16.75
2022-08-29T01:21:20.918Z,12.63
2022-08-29T01:24:02.450Z,10.73
2022-08-29T01:26:30.996Z,11.02
2022-08-29T01:28:59.333Z,9.82
2022-08-29T01:31:55.832Z,10.05
2022-08-29T01:34:26.403Z,11.85
2022-08-29T01:36:55.287Z,10.65
2022-08-29T01:39:24.590Z,10.88
2022-08-29T01:41:53.054Z,9.75
2022-08-29T01:44:22.434Z,9.48
2022-08-29T01:46:51.488Z,14.73
2022-08-29T01:49:20.651Z,11.18
2022-08-29T01:51:48.812Z,11.73
2022-08-29T01:54:17.218Z,13.70
2022-08-29T01:56:47.864Z,12.73
2022-08-29T01:59:16.884Z,13.25
2022-08-29T02:01:49.697Z,17.08
2022-08-29T02:04:17.864Z,12.48
2022-08-29T02:06:46.581Z,16.70
2022-08-29T02:09:14.426Z,14.52
2022-08-29T02:11:42.474Z,14.48
2022-08-29T02:14:13.246Z,11.60
2022-08-29T02:16:47.347Z,13.50
2022-08-29T02:19:15.682Z,9.85
2022-08-29T02:21:44.598Z,10.68
2022-08-29T02:24:25.073Z,11.77
2022-08-29T02:29:21.868Z,13.20
2022-08-29T02:31:49.891Z,16.67
2022-08-29T02:34:18.496Z,19.50
2022-08-29T02:36:49.073Z,16.40
2022-08-29T02:39:17.156Z,17.10
2022-08-29T02:41:45.222Z,14.52
2022-08-29T02:44:13.620Z,16.13
2022-08-29T02:46:41.464Z,12.18
2022-08-29T02:49:09.486Z,13.50
2022-08-29T02:51:37.614Z,13.30
2022-08-29T02:54:06.288Z,16.40
2022-08-29T02:56:34.507Z,15.65
2022-08-29T02:59:02.586Z,15.30
2022-08-29T03:01:32.515Z,16.35
2022-08-29T03:04:00.526Z,16.40
2022-08-29T03:06:28.439Z,12.65
2022-08-29T03:08:56.644Z,15.18
2022-08-29T03:11:25.377Z,13.38
2022-08-29T03:13:57.520Z,13.45
2022-08-29T03:16:26.573Z,13.65
2022-08-29T03:18:55.346Z,13.88
2022-08-29T03:21:24.837Z,11.85
2022-08-29T03:23:52.798Z,15.15
2022-08-29T03:26:20.960Z,13.02
2022-08-29T03:28:49.458Z,11.52
2022-08-29T03:31:17.778Z,13.75
2022-08-29T03:33:46.024Z,12.85
2022-08-29T03:36:14.956Z,12.85
2022-08-29T03:38:44.705Z,11.07
2022-08-29T03:41:12.820Z,13.45
2022-08-29T03:43:41.153Z,13.23
2022-08-29T03:46:09.137Z,17.15
2022-08-29T03:48:36.990Z,10.25
2022-08-29T03:51:05.092Z,11.23
2022-08-29T03:53:33.628Z,11.40
2022-08-29T03:56:01.996Z,10.57
2022-08-29T03:58:29.924Z,11.82
2022-08-29T04:00:57.737Z,12.27
2022-08-29T04:03:30.956Z,13.60
2022-08-29T04:05:59.821Z,18.25
2022-08-29T04:08:28.018Z,11.95
2022-08-29T04:10:56.139Z,11.27
2022-08-29T04:13:23.938Z,16.38
2022-08-29T04:15:52.152Z,14.90
2022-08-29T04:18:21.641Z,14.40
2022-08-29T04:20:50.764Z,17.60
2022-08-29T04:23:18.716Z,18.92
2022-08-29T04:25:46.743Z,16.10
2022-08-29T04:28:15.204Z,18.17
2022-08-29T04:30:51.457Z,14.50
2022-08-29T04:33:22.757Z,16.35
2022-08-29T04:35:51.286Z,12.70
2022-08-29T04:38:19.222Z,13.60
2022-08-29T04:40:47.647Z,16.25
2022-08-29T04:43:16.086Z,12.32
2022-08-29T04:45:44.148Z,14.82
2022-08-29T04:48:12.368Z,9.68
2022-08-29T04:50:40.567Z,13.95
2022-08-29T04:53:08.404Z,10.50
2022-08-29T04:55:36.440Z,13.02
2022-08-29T04:58:04.525Z,14.38
2022-08-29T05:00:32.302Z,12.55
2022-08-29T05:03:00.651Z,16.10
2022-08-29T05:05:29.101Z,12.52
2022-08-29T05:07:56.764Z,9.75
2022-08-29T05:10:25.559Z,12.30
2022-08-29T05:12:53.305Z,16.33
2022-08-29T05:15:21.234Z,17.17
2022-08-29T05:17:49.137Z,12.65
2022-08-29T05:20:18.294Z,12.57
2022-08-29T05:22:46.361Z,11.00
2022-08-29T05:25:18.254Z,15.32
2022-08-29T05:27:47.078Z,14.13
2022-08-29T05:30:15.568Z,11.23
2022-08-29T05:32:43.682Z,14.80
2022-08-29T05:35:11.904Z,12.60
2022-08-29T05:37:40.420Z,10.93
2022-08-29T05:40:08.595Z,15.98
2022-08-29T05:42:36.359Z,12.77
2022-08-29T05:45:05.345Z,11.18
2022-08-29T05:47:33.709Z,13.52
2022-08-29T05:50:01.948Z,13.27
2022-08-29T05:52:29.903Z,12.30
2022-08-29T05:54:57.555Z,13.27
2022-08-29T05:57:25.392Z,12.65
2022-08-29T05:59:54.059Z,12.85
2022-08-29T06:02:22.691Z,16.52
2022-08-29T06:04:50.926Z,14.35
2022-08-29T06:07:19.124Z,12.93
2022-08-29T06:09:47.403Z,15.55
2022-08-29T06:12:16.435Z,14.43
2022-08-29T06:14:50.534Z,17.20
2022-08-29T06:17:18.759Z,12.80
2022-08-29T06:19:46.896Z,11.85
2022-08-29T06:22:14.844Z,15.05
2022-08-29T06:24:44.606Z,13.10
2022-08-29T06:27:13.303Z,16.45
2022-08-29T06:29:43.514Z,12.18
2022-08-29T06:32:12.356Z,14.30
2022-08-29T06:34:40.484Z,14.27
2022-08-29T06:37:08.428Z,11.93
2022-08-29T06:39:36.599Z,10.55
2022-08-29T06:42:04.768Z,13.10
2022-08-29T06:44:33.167Z,11.07
2022-08-29T06:47:00.981Z,11.93
2022-08-29T06:49:29.000Z,12.20
2022-08-29T06:51:58.574Z,10.50
2022-08-29T06:54:28.033Z,12.73
2022-08-29T06:56:57.188Z,13.52
2022-08-29T06:59:25.188Z,14.68
2022-08-29T07:01:53.576Z,10.15
2022-08-29T07:04:21.645Z,15.57
2022-08-29T07:06:50.868Z,10.60
2022-08-29T07:09:18.683Z,12.43
2022-08-29T07:11:46.780Z,10.20
2022-08-29T07:14:14.864Z,10.15
2022-08-29T07:16:43.287Z,12.25
2022-08-29T07:19:11.559Z,12.20
2022-08-29T07:21:40.109Z,11.55
2022-08-29T07:24:08.445Z,12.00
2022-08-29T07:26:42.684Z,11.98
2022-08-29T07:29:12.892Z,13.07
2022-08-29T07:31:40.875Z,13.77
2022-08-29T07:34:09.506Z,14.88
2022-08-29T07:36:37.831Z,11.13
2022-08-29T07:39:08.251Z,12.48
2022-08-29T07:41:36.097Z,10.82
2022-08-29T07:44:04.068Z,13.27
2022-08-29T07:46:32.789Z,10.18
2022-08-29T07:49:01.031Z,11.57
2022-08-29T07:51:29.314Z,16.52
2022-08-29T07:53:57.990Z,11.82
2022-08-29T07:56:33.391Z,14.07
2022-08-29T07:59:04.968Z,14.50
2022-08-29T08:01:32.776Z,14.30
2022-08-29T08:04:00.819Z,10.35
2022-08-29T08:06:29.053Z,11.02
2022-08-29T08:08:58.550Z,12.95
2022-08-29T08:11:27.180Z,10.82
2022-08-29T08:13:56.792Z,16.70
2022-08-29T08:16:26.264Z,12.63
2022-08-29T08:18:54.956Z,15.80
2022-08-29T08:21:23.596Z,14.30
2022-08-29T08:23:51.617Z,10.20
2022-08-29T08:26:20.027Z,11.98
2022-08-29T08:28:48.445Z,13.27
2022-08-29T08:31:17.233Z,14.70
2022-08-29T08:33:46.013Z,15.48
2022-08-29T08:36:19.774Z,16.33
2022-08-29T08:38:48.097Z,12.55
2022-08-29T08:41:20.393Z,11.73
2022-08-29T08:43:50.611Z,13.18
2022-08-29T08:46:19.739Z,13.32
2022-08-29T08:48:49.108Z,12.30
2022-08-29T08:51:21.719Z,12.70
2022-08-29T08:53:51.048Z,12.23
2022-08-29T08:56:43.650Z,14.00
2022-08-29T08:59:11.716Z,16.65
2022-08-29T09:01:41.880Z,15.75
2022-08-29T09:04:11.699Z,15.07
2022-08-29T09:06:45.547Z,17.40
2022-08-29T09:09:18.646Z,11.25
2022-08-29T09:11:56.542Z,12.40
2022-08-29T09:14:24.356Z,11.10
2022-08-29T09:16:54.588Z,10.18
2022-08-29T09:19:22.800Z,12.80
2022-08-29T09:21:54.094Z,14.20
2022-08-29T09:24:24.824Z,10.73
2022-08-29T09:26:52.950Z,13.38
2022-08-29T09:29:22.252Z,10.85
2022-08-29T09:32:05.076Z,14.90
2022-08-29T09:35:06.718Z,11.10
2022-08-29T09:37:32.902Z,13.30
2022-08-29T09:40:06.557Z,15.25
2022-08-29T09:42:36.711Z,15.27
2022-08-29T09:45:08.636Z,12.05
2022-08-29T09:47:37.341Z,13.75
2022-08-29T09:50:05.192Z,17.17
2022-08-29T09:52:33.430Z,17.08
2022-08-29T09:55:18.098Z,14.27
2022-08-29T09:57:50.386Z,12.88
2022-08-29T10:00:24.810Z,14.43
2022-08-29T10:02:55.368Z,18.15
2022-08-29T10:05:32.341Z,14.32
2022-08-29T10:08:00.343Z,14.07
2022-08-29T10:10:31.386Z,11.55
2022-08-29T10:15:50.823Z,19.77
2022-08-29T10:18:21.691Z,10.98
2022-08-29T10:21:14.423Z,12.15
2022-08-29T10:23:45.641Z,11.77
2022-08-29T10:26:32.108Z,14.20
2022-08-29T10:29:05.387Z,12.45
2022-08-29T10:31:36.079Z,14.48
2022-08-29T10:34:07.360Z,12.48
2022-08-29T10:36:38.041Z,11.43
2022-08-29T10:39:28.961Z,12.50
2022-08-29T10:41:56.892Z,15.02
2022-08-29T10:44:31.025Z,9.93
2022-08-29T10:47:01.736Z,12.43
2022-08-29T10:49:32.609Z,13.23
2022-08-29T10:54:47.002Z,12.60
2022-08-29T10:57:19.654Z,12.48
2022-08-29T11:00:04.279Z,12.10
2022-08-29T11:02:38.732Z,12.65
2022-08-29T11:05:12.576Z,11.95
2022-08-29T11:08:16.023Z,12.38
2022-08-29T11:10:51.206Z,12.82
2022-08-29T11:13:28.430Z,11.63
2022-08-29T11:16:02.358Z,11.23
2022-08-29T11:18:33.446Z,11.27
2022-08-29T11:21:21.550Z,12.73
2022-08-29T11:23:49.883Z,10.68
2022-08-29T11:26:22.299Z,10.55
2022-08-29T11:28:59.074Z,9.30
2022-08-29T11:31:45.328Z,10.50
2022-08-29T11:34:13.212Z,12.23
2022-08-29T11:36:59.341Z,12.45
2022-08-29T11:39:30.271Z,10.18
2022-08-29T11:42:04.224Z,10.30
2022-08-29T11:44:32.308Z,12.02
2022-08-29T11:47:00.602Z,10.48
2022-08-29T11:49:31.667Z,9.63
2022-08-29T11:52:17.702Z,8.23
2022-08-29T11:55:06.785Z,8.88
2022-08-29T11:57:34.612Z,9.85
2022-08-29T12:00:03.163Z,11.18
2022-08-29T12:02:34.467Z,11.93
2022-08-29T12:05:22.470Z,8.43
2022-08-29T12:07:55.945Z,11.27
2022-08-29T12:10:24.880Z,14.45
2022-08-29T12:12:52.602Z,10.02
2022-08-29T12:15:36.636Z,8.80
2022-08-29T12:18:24.353Z,12.23
2022-08-29T12:20:53.700Z,10.57
2022-08-29T12:23:21.462Z,11.80
2022-08-29T12:26:09.661Z,12.77
2022-08-29T12:28:47.436Z,8.90
2022-08-29T12:31:22.060Z,9.35
2022-08-29T12:34:08.728Z,10.00
2022-08-29T12:36:55.282Z,9.32
2022-08-29T12:39:27.485Z,13.68
2022-08-29T12:42:14.095Z,13.80
2022-08-29T12:44:43.761Z,8.73
2022-08-29T12:47:27.035Z,9.32
2022-08-29T12:50:21.078Z,9.52
2022-08-29T12:53:04.157Z,7.28
2022-08-29T12:55:41.026Z,9.02
2022-08-29T12:58:09.958Z,9.98
2022-08-29T13:00:38.188Z,13.35
2022-08-29T13:03:17.641Z,7.65
2022-08-29T13:05:45.709Z,12.30
2022-08-29T13:08:15.875Z,7.18
2022-08-29T13:11:00.509Z,9.23
2022-08-29T13:13:29.672Z,11.07
2022-08-29T13:15:59.080Z,10.55
2022-08-29T13:18:27.436Z,6.57
2022-08-29T13:21:06.794Z,9.32
2022-08-29T13:23:38.913Z,7.50
2022-08-29T13:26:10.478Z,6.90
2022-08-29T13:28:47.161Z,10.00
2022-08-29T13:31:15.381Z,8.05
2022-08-29T13:33:49.729Z,7.13
2022-08-29T13:36:36.229Z,7.65
2022-08-29T13:39:19.568Z,7.65
2022-08-29T13:41:52.446Z,8.65
2022-08-29T13:44:24.650Z,7.57
2022-08-29T13:46:53.960Z,8.27
2022-08-29T13:49:23.556Z,8.95
2022-08-29T13:51:52.458Z,8.25
2022-08-29T13:54:20.365Z,8.93
2022-08-29T13:56:54.144Z,6.13
2022-08-29T13:59:22.990Z,6.60
2022-08-29T14:04:41.033Z,6.55
2022-08-29T14:07:19.428Z,5.53
2022-08-29T14:09:48.266Z,14.27
2022-08-29T14:12:16.445Z,7.30
2022-08-29T14:14:44.723Z,10.07
2022-08-29T14:17:18.475Z,8.20
2022-08-29T14:19:47.912Z,5.90
2022-08-29T14:22:15.750Z,9.73
2022-08-29T14:24:43.874Z,7.53
2022-08-29T14:27:11.930Z,5.53
2022-08-29T14:29:39.688Z,5.20
2022-08-29T14:32:07.506Z,5.43
2022-08-29T14:34:35.532Z,7.00
2022-08-29T14:37:04.068Z,7.30
2022-08-29T14:39:31.993Z,7.72
2022-08-29T14:41:59.844Z,5.93
2022-08-29T14:44:30.595Z,8.57
2022-08-29T14:49:26.461Z,5.78
2022-08-29T14:51:54.550Z,9.02
2022-08-29T14:54:22.561Z,6.22
2022-08-29T14:56:50.670Z,8.93
2022-08-29T14:59:20.683Z,9.10
2022-08-29T15:01:53.825Z,6.73
2022-08-29T15:04:34.991Z,6.35
2022-08-29T15:07:14.738Z,11.98
2022-08-29T15:09:45.040Z,4.50
2022-08-29T15:12:14.001Z,5.72
2022-08-29T15:14:42.787Z,6.00
2022-08-29T15:17:10.912Z,6.75
2022-08-29T15:20:34.222Z,9.55
2022-08-29T15:22:27.543Z,5.32
2022-08-29T15:24:55.577Z,7.28
2022-08-29T15:27:27.623Z,5.78
2022-08-29T15:29:56.506Z,5.72
2022-08-29T15:32:25.057Z,6.82
2022-08-29T15:34:52.891Z,5.30
2022-08-29T15:37:20.918Z,8.52
2022-08-29T15:39:54.485Z,6.32
2022-08-29T15:42:29.754Z,6.85
2022-08-29T15:45:00.008Z,5.20
2022-08-29T15:47:30.538Z,6.05
2022-08-29T15:49:58.701Z,7.25
2022-08-29T15:52:26.731Z,6.25
2022-08-29T15:54:54.812Z,7.38
2022-08-29T15:57:22.853Z,6.93
2022-08-29T15:59:58.813Z,6.43
2022-08-29T16:02:27.539Z,5.47
2022-08-29T16:04:57.874Z,6.93
2022-08-29T16:07:28.904Z,6.28
2022-08-29T16:09:57.692Z,6.60
2022-08-29T16:12:25.891Z,7.40
2022-08-29T16:15:03.641Z,8.85
2022-08-29T16:17:34.044Z,6.90
2022-08-29T16:20:02.671Z,9.38
2022-08-29T16:22:31.227Z,9.60
2022-08-29T16:24:59.787Z,9.18
2022-08-29T16:27:27.650Z,6.97
2022-08-29T16:29:56.206Z,8.43
2022-08-29T16:32:24.068Z,7.63
2022-08-29T16:34:52.532Z,7.45
2022-08-29T16:37:20.706Z,6.03
2022-08-29T16:39:48.917Z,6.95
2022-08-29T16:42:17.106Z,7.50
2022-08-29T16:44:45.349Z,5.95
2022-08-29T16:47:13.503Z,10.43
2022-08-29T16:49:41.507Z,7.53
2022-08-29T16:52:09.521Z,9.45
2022-08-29T16:54:37.745Z,9.65
2022-08-29T16:57:05.970Z,8.50
2022-08-29T16:59:37.286Z,6.95
2022-08-29T17:02:05.624Z,9.13
2022-08-29T17:04:33.965Z,7.35
2022-08-29T17:07:02.476Z,8.13
2022-08-29T17:09:30.414Z,10.00
2022-08-29T17:11:59.972Z,8.57
2022-08-29T17:14:30.076Z,7.22
2022-08-29T17:16:58.127Z,6.75
2022-08-29T17:19:26.208Z,9.73
2022-08-29T17:21:54.852Z,9.52
2022-08-29T17:24:24.339Z,10.75
2022-08-29T17:26:53.096Z,9.90
2022-08-29T17:29:21.045Z,10.27
2022-08-29T17:31:49.130Z,7.60
2022-08-29T17:34:17.488Z,12.73
2022-08-29T17:36:45.550Z,8.30
2022-08-29T17:39:14.117Z,9.38
2022-08-29T17:41:42.955Z,7.18
2022-08-29T17:44:12.902Z,8.10
2022-08-29T17:46:40.748Z,9.43
2022-08-29T17:49:11.705Z,10.30
2022-08-29T17:51:40.556Z,8.45
2022-08-29T17:54:14.948Z,10.60
2022-08-29T17:56:44.836Z,12.55
2022-08-29T17:59:13.581Z,7.97
2022-08-29T18:01:41.572Z,15.63
2022-08-29T18:04:09.583Z,15.57
2022-08-29T18:06:37.779Z,10.00
2022-08-29T18:09:05.920Z,13.20
2022-08-29T18:11:33.716Z,12.05
2022-08-29T18:14:02.520Z,9.13
2022-08-29T18:16:30.564Z,10.55
2022-08-29T18:18:58.476Z,11.35
2022-08-29T18:21:27.178Z,9.38
2022-08-29T18:23:55.214Z,16.75
2022-08-29T18:26:23.120Z,13.68
2022-08-29T18:28:51.165Z,11.07
2022-08-29T18:31:20.045Z,15.57
2022-08-29T18:34:04.391Z,15.70
2022-08-29T18:36:34.216Z,10.98
2022-08-29T18:39:02.982Z,11.18
2022-08-29T18:41:30.993Z,10.65
2022-08-29T18:44:00.162Z,13.98
2022-08-29T18:46:28.284Z,13.82
2022-08-29T18:48:56.694Z,13.38
2022-08-29T18:51:25.883Z,12.90
2022-08-29T18:53:53.804Z,12.65
2022-08-29T18:56:22.088Z,12.20
2022-08-29T18:58:54.840Z,13.13
2022-08-29T19:01:29.856Z,14.35
2022-08-29T19:03:59.207Z,12.80
2022-08-29T19:06:27.717Z,12.45
2022-08-29T19:08:56.826Z,11.10
2022-08-29T19:11:25.818Z,11.93
2022-08-29T19:13:54.022Z,13.65
2022-08-29T19:16:23.195Z,10.95
2022-08-29T19:18:51.359Z,17.35
2022-08-29T19:21:19.981Z,12.40
2022-08-29T19:23:52.202Z,15.25
2022-08-29T19:26:23.832Z,12.60
2022-08-29T19:28:54.091Z,13.07
2022-08-29T19:31:24.106Z,12.25
2022-08-29T19:33:52.318Z,10.93
2022-08-29T19:36:21.765Z,13.70
2022-08-29T19:38:50.847Z,13.68
2022-08-29T19:41:18.799Z,12.23
2022-08-29T19:43:47.832Z,11.95
2022-08-29T19:46:18.069Z,10.90
2022-08-29T19:48:48.587Z,13.40
2022-08-29T19:51:19.811Z,10.43
2022-08-29T19:53:52.299Z,13.27
2022-08-29T19:56:20.358Z,15.75
2022-08-29T19:58:49.523Z,22.85
2022-08-29T20:01:18.312Z,17.95
2022-08-29T20:03:46.198Z,26.70
2022-08-29T20:06:14.020Z,18.95
2022-08-29T20:08:43.278Z,19.08
2022-08-29T20:11:15.945Z,17.60
2022-08-29T20:13:50.096Z,19.55
2022-08-29T20:16:19.972Z,15.80
2022-08-29T20:18:50.269Z,14.93
2022-08-29T20:21:19.313Z,16.50
2022-08-29T20:23:49.373Z,17.85
2022-08-29T20:26:17.969Z,18.60
2022-08-29T20:28:45.920Z,17.63
2022-08-29T20:31:14.111Z,18.00
2022-08-29T20:33:43.847Z,17.52
2022-08-29T20:36:30.488Z,21.10
2022-08-29T20:38:58.202Z,22.25
2022-08-29T20:41:25.929Z,21.92
2022-08-29T20:43:53.816Z,18.13
2022-08-29T20:46:22.240Z,23.13
2022-08-29T20:48:50.659Z,22.27
2022-08-29T20:51:18.530Z,19.02
2022-08-29T20:53:46.293Z,17.15
2022-08-29T20:56:14.096Z,19.80
2022-08-29T20:58:42.017Z,21.30
2022-08-29T21:01:10.154Z,17.08
2022-08-29T21:03:56.895Z,23.52
2022-08-29T21:06:24.946Z,16.35
2022-08-29T21:08:53.304Z,15.60
2022-08-29T21:11:22.369Z,11.88
2022-08-29T21:13:53.287Z,11.88
2022-08-29T21:16:22.216Z,13.57
2022-08-29T21:18:53.823Z,12.93
2022-08-29T21:21:24.889Z,11.55
2022-08-29T21:23:53.254Z,16.58
2022-08-29T21:26:21.290Z,13.02
2022-08-29T21:28:49.256Z,12.18
2022-08-29T21:31:18.274Z,14.63
2022-08-29T21:33:46.682Z,14.80
2022-08-29T21:36:15.939Z,19.33
2022-08-29T21:38:43.667Z,19.58
2022-08-29T21:41:15.213Z,19.52
2022-08-29T21:43:43.716Z,18.75
2022-08-29T21:46:20.951Z,14.88
2022-08-29T21:48:51.656Z,19.23
2022-08-29T21:51:23.048Z,19.70
2022-08-29T21:53:51.662Z,14.57
2022-08-29T21:56:19.838Z,16.63
2022-08-29T21:58:54.081Z,17.02
2022-08-29T22:01:23.649Z,16.13
2022-08-29T22:03:51.802Z,16.83
2022-08-29T22:06:20.301Z,21.75
2022-08-29T22:08:48.482Z,16.23
2022-08-29T22:11:37.041Z,15.07
2022-08-29T22:14:07.355Z,17.17
2022-08-29T22:16:35.768Z,18.70
2022-08-29T22:19:03.684Z,23.45
2022-08-29T22:21:34.516Z,18.02
2022-08-29T22:24:02.936Z,20.88
2022-08-29T22:26:31.017Z,15.85
2022-08-29T22:28:59.036Z,20.48
2022-08-29T22:31:27.568Z,17.15
2022-08-29T22:33:55.811Z,17.65
2022-08-29T22:36:24.786Z,17.90
2022-08-29T22:38:56.655Z,15.35
2022-08-29T22:41:25.588Z,13.45
2022-08-29T22:44:16.508Z,12.52
2022-08-29T22:46:45.809Z,11.57
2022-08-29T22:49:14.034Z,13.43
2022-08-29T22:51:42.031Z,15.35
2022-08-29T22:54:28.929Z,11.55
2022-08-29T22:56:56.958Z,11.63
2022-08-29T22:59:24.976Z,9.80
2022-08-29T23:01:53.207Z,12.57
2022-08-29T23:04:21.694Z,14.90
2022-08-29T23:06:49.339Z,13.32
2022-08-29T23:09:17.713Z,19.00
2022-08-29T23:11:46.103Z,14.32
2022-08-29T23:14:14.124Z,15.35
2022-08-29T23:16:42.953Z,17.40
2022-08-29T23:19:12.883Z,13.30
2022-08-29T23:21:41.292Z,14.52
2022-08-29T23:24:10.708Z,11.80
2022-08-29T23:26:38.920Z,14.98
2022-08-29T23:29:06.695Z,14.43
2022-08-29T23:31:34.810Z,11.23
2022-08-29T23:34:02.847Z,10.63
2022-08-29T23:36:30.838Z,17.25
2022-08-29T23:38:58.773Z,11.43
2022-08-29T23:41:26.859Z,16.38
2022-08-29T23:43:55.347Z,11.70
2022-08-29T23:46:24.287Z,13.95
2022-08-29T23:48:52.611Z,11.93
2022-08-29T23:51:21.762Z,16.55
2022-08-29T23:53:49.878Z,15.15
2022-08-29T23:56:19.134Z,14.85
2022-08-29T23:58:47.436Z,13.70
